sensor_id;sensor_type;location;lat;lon;timestamp;P1;durP1;ratioP1;P2;durP2;ratioP2
23362;SDS011;11853;48.080;11.960;2023-02-07T00:00:06;17.63;;;13.65;;
23362;SDS011;11853;48.080;11.960;2023-02-07T00:02:35;15.75;;;12.73;;
23362;SDS011;11853;48.080;11.960;2023-02-07T00:05:00;17.60;;;13.15;;
23362;SDS011;11853;48.080;11.960;2023-02-07T00:07:26;15.43;;;13.00;;
23362;SDS011;11853;48.080;11.960;2023-02-07T00:09:51;18.13;;;13.60;;
23362;SDS011;11853;48.080;11.960;2023-02-07T00:12:17;14.52;;;12.70;;
23362;SDS011;11853;48.080;11.960;2023-02-07T00:14:43;15.70;;;12.85;;
23362;SDS011;11853;48.080;11.960;2023-02-07T00:17:09;13.55;;;11.90;;
23362;SDS011;11853;48.080;11.960;2023-02-07T00:19:35;18.88;;;12.77;;
23362;SDS011;11853;48.080;11.960;2023-02-07T00:22:00;14.82;;;12.23;;
23362;SDS011;11853;48.080;11.960;2023-02-07T00:24:30;14.35;;;11.73;;
23362;SDS011;11853;48.080;11.960;2023-02-07T00:26:55;14.25;;;11.85;;
23362;SDS011;11853;48.080;11.960;2023-02-07T00:29:21;14.20;;;11.18;;
23362;SDS011;11853;48.080;11.960;2023-02-07T00:31:47;15.73;;;12.75;;
23362;SDS011;11853;48.080;11.960;2023-02-07T00:34:13;18.55;;;12.40;;
23362;SDS011;11853;48.080;11.960;2023-02-07T00:36:39;15.40;;;11.95;;
23362;SDS011;11853;48.080;11.960;2023-02-07T00:39:06;15.60;;;11.95;;
23362;SDS011;11853;48.080;11.960;2023-02-07T00:41:36;16.52;;;12.05;;
23362;SDS011;11853;48.080;11.960;2023-02-07T00:44:02;16.63;;;12.18;;
23362;SDS011;11853;48.080;11.960;2023-02-07T00:46:27;14.07;;;11.98;;
23362;SDS011;11853;48.080;11.960;2023-02-07T00:48:53;15.77;;;11.98;;
23362;SDS011;11853;48.080;11.960;2023-02-07T00:51:19;13.93;;;11.40;;
23362;SDS011;11853;48.080;11.960;2023-02-07T00:53:44;14.00;;;10.35;;
23362;SDS011;11853;48.080;11.960;2023-02-07T00:56:11;16.80;;;12.55;;
23362;SDS011;11853;48.080;11.960;2023-02-07T00:58:37;14.60;;;11.70;;
23362;SDS011;11853;48.080;11.960;2023-02-07T01:01:03;14.48;;;12.18;;
23362;SDS011;11853;48.080;11.960;2023-02-07T01:03:29;15.77;;;12.35;;
23362;SDS011;11853;48.080;11.960;2023-02-07T01:05:55;14.88;;;12.90;;
23362;SDS011;11853;48.080;11.960;2023-02-07T01:08:21;16.60;;;11.57;;
23362;SDS011;11853;48.080;11.960;2023-02-07T01:10:47;14.07;;;11.40;;
23362;SDS011;11853;48.080;11.960;2023-02-07T01:13:14;14.20;;;11.60;;
23362;SDS011;11853;48.080;11.960;2023-02-07T01:15:41;15.60;;;11.80;;
23362;SDS011;11853;48.080;11.960;2023-02-07T01:18:08;14.07;;;12.00;;
23362;SDS011;11853;48.080;11.960;2023-02-07T01:20:34;16.52;;;11.73;;
23362;SDS011;11853;48.080;11.960;2023-02-07T01:23:01;14.10;;;12.18;;
23362;SDS011;11853;48.080;11.960;2023-02-07T01:25:27;15.10;;;11.70;;
23362;SDS011;11853;48.080;11.960;2023-02-07T01:27:52;13.82;;;11.60;;
23362;SDS011;11853;48.080;11.960;2023-02-07T01:30:18;15.32;;;11.77;;
23362;SDS011;11853;48.080;11.960;2023-02-07T01:32:44;15.00;;;11.00;;
23362;SDS011;11853;48.080;11.960;2023-02-07T01:35:09;15.50;;;11.80;;
23362;SDS011;11853;48.080;11.960;2023-02-07T01:37:35;14.15;;;11.63;;
23362;SDS011;11853;48.080;11.960;2023-02-07T01:40:01;15.25;;;11.38;;
23362;SDS011;11853;48.080;11.960;2023-02-07T01:42:27;16.73;;;11.02;;
23362;SDS011;11853;48.080;11.960;2023-02-07T01:47:22;17.52;;;11.88;;
23362;SDS011;11853;48.080;11.960;2023-02-07T01:49:49;18.42;;;12.52;;
23362;SDS011;11853;48.080;11.960;2023-02-07T01:52:22;18.75;;;12.30;;
23362;SDS011;11853;48.080;11.960;2023-02-07T01:54:54;13.23;;;11.05;;
23362;SDS011;11853;48.080;11.960;2023-02-07T01:57:22;14.35;;;11.38;;
23362;SDS011;11853;48.080;11.960;2023-02-07T01:59:49;16.90;;;12.45;;
23362;SDS011;11853;48.080;11.960;2023-02-07T02:02:18;17.60;;;12.68;;
23362;SDS011;11853;48.080;11.960;2023-02-07T02:04:47;14.80;;;12.15;;
23362;SDS011;11853;48.080;11.960;2023-02-07T02:07:15;16.23;;;12.80;;
23362;SDS011;11853;48.080;11.960;2023-02-07T02:09:42;16.80;;;12.07;;
23362;SDS011;11853;48.080;11.960;2023-02-07T02:12:14;15.70;;;12.40;;
23362;SDS011;11853;48.080;11.960;2023-02-07T02:17:38;15.73;;;11.90;;
23362;SDS011;11853;48.080;11.960;2023-02-07T02:32:12;20.50;;;13.63;;
23362;SDS011;11853;48.080;11.960;2023-02-07T02:35:11;20.15;;;13.25;;
23362;SDS011;11853;48.080;11.960;2023-02-07T02:45:47;16.88;;;13.18;;
23362;SDS011;11853;48.080;11.960;2023-02-07T02:48:17;17.65;;;13.77;;
23362;SDS011;11853;48.080;11.960;2023-02-07T02:50:47;17.42;;;14.23;;
23362;SDS011;11853;48.080;11.960;2023-02-07T02:53:16;22.15;;;15.15;;
23362;SDS011;11853;48.080;11.960;2023-02-07T02:59:01;17.75;;;13.75;;
23362;SDS011;11853;48.080;11.960;2023-02-07T03:05:51;16.92;;;13.52;;
23362;SDS011;11853;48.080;11.960;2023-02-07T03:10:59;18.10;;;13.65;;
23362;SDS011;11853;48.080;11.960;2023-02-07T03:13:59;16.00;;;13.57;;
23362;SDS011;11853;48.080;11.960;2023-02-07T03:16:47;20.50;;;14.27;;
23362;SDS011;11853;48.080;11.960;2023-02-07T03:19:20;15.00;;;13.25;;
23362;SDS011;11853;48.080;11.960;2023-02-07T03:21:53;16.23;;;13.32;;
23362;SDS011;11853;48.080;11.960;2023-02-07T03:24:24;16.27;;;13.75;;
23362;SDS011;11853;48.080;11.960;2023-02-07T03:26:54;15.88;;;13.05;;
23362;SDS011;11853;48.080;11.960;2023-02-07T03:29:23;18.67;;;13.10;;
23362;SDS011;11853;48.080;11.960;2023-02-07T03:31:53;18.70;;;13.45;;
23362;SDS011;11853;48.080;11.960;2023-02-07T03:34:28;17.13;;;13.65;;
23362;SDS011;11853;48.080;11.960;2023-02-07T03:39:43;17.45;;;13.20;;
23362;SDS011;11853;48.080;11.960;2023-02-07T03:42:11;19.67;;;13.43;;
23362;SDS011;11853;48.080;11.960;2023-02-07T03:44:45;16.88;;;14.02;;
23362;SDS011;11853;48.080;11.960;2023-02-07T03:47:15;17.13;;;13.70;;
23362;SDS011;11853;48.080;11.960;2023-02-07T03:49:42;18.77;;;14.60;;
23362;SDS011;11853;48.080;11.960;2023-02-07T03:52:07;17.83;;;13.95;;
23362;SDS011;11853;48.080;11.960;2023-02-07T03:54:33;16.08;;;13.35;;
23362;SDS011;11853;48.080;11.960;2023-02-07T03:57:00;15.40;;;12.68;;
23362;SDS011;11853;48.080;11.960;2023-02-07T03:59:26;15.60;;;12.77;;
23362;SDS011;11853;48.080;11.960;2023-02-07T04:01:52;18.42;;;13.82;;
23362;SDS011;11853;48.080;11.960;2023-02-07T04:04:17;17.35;;;12.93;;
23362;SDS011;11853;48.080;11.960;2023-02-07T04:06:43;17.00;;;13.02;;
23362;SDS011;11853;48.080;11.960;2023-02-07T04:09:08;17.45;;;13.40;;
23362;SDS011;11853;48.080;11.960;2023-02-07T04:11:34;15.13;;;12.57;;
23362;SDS011;11853;48.080;11.960;2023-02-07T04:13:59;15.02;;;12.77;;
23362;SDS011;11853;48.080;11.960;2023-02-07T04:16:25;16.13;;;12.45;;
23362;SDS011;11853;48.080;11.960;2023-02-07T04:18:51;16.73;;;12.23;;
23362;SDS011;11853;48.080;11.960;2023-02-07T04:21:16;15.35;;;13.45;;
23362;SDS011;11853;48.080;11.960;2023-02-07T04:23:42;14.77;;;12.73;;
23362;SDS011;11853;48.080;11.960;2023-02-07T04:26:07;15.27;;;13.00;;
23362;SDS011;11853;48.080;11.960;2023-02-07T04:28:33;18.48;;;13.13;;
23362;SDS011;11853;48.080;11.960;2023-02-07T04:30:58;16.52;;;13.68;;
23362;SDS011;11853;48.080;11.960;2023-02-07T04:33:24;15.20;;;12.65;;
23362;SDS011;11853;48.080;11.960;2023-02-07T04:35:56;15.27;;;12.10;;
23362;SDS011;11853;48.080;11.960;2023-02-07T04:38:24;15.45;;;11.98;;
23362;SDS011;11853;48.080;11.960;2023-02-07T04:40:51;14.70;;;12.20;;
23362;SDS011;11853;48.080;11.960;2023-02-07T04:43:17;15.15;;;11.63;;
23362;SDS011;11853;48.080;11.960;2023-02-07T04:45:44;17.58;;;12.45;;
23362;SDS011;11853;48.080;11.960;2023-02-07T04:48:11;13.70;;;12.05;;
23362;SDS011;11853;48.080;11.960;2023-02-07T04:50:36;14.77;;;11.35;;
23362;SDS011;11853;48.080;11.960;2023-02-07T04:53:02;14.93;;;12.15;;
23362;SDS011;11853;48.080;11.960;2023-02-07T04:55:27;14.75;;;11.75;;
23362;SDS011;11853;48.080;11.960;2023-02-07T04:57:56;14.57;;;11.95;;
23362;SDS011;11853;48.080;11.960;2023-02-07T05:00:21;16.98;;;11.63;;
23362;SDS011;11853;48.080;11.960;2023-02-07T05:02:47;12.60;;;11.00;;
23362;SDS011;11853;48.080;11.960;2023-02-07T05:05:12;16.52;;;12.52;;
23362;SDS011;11853;48.080;11.960;2023-02-07T05:07:38;17.45;;;11.95;;
23362;SDS011;11853;48.080;11.960;2023-02-07T05:10:04;15.65;;;11.88;;
23362;SDS011;11853;48.080;11.960;2023-02-07T05:12:30;16.88;;;12.23;;
23362;SDS011;11853;48.080;11.960;2023-02-07T05:14:55;16.25;;;12.45;;
23362;SDS011;11853;48.080;11.960;2023-02-07T05:17:21;15.43;;;12.20;;
23362;SDS011;11853;48.080;11.960;2023-02-07T05:19:46;15.25;;;12.10;;
23362;SDS011;11853;48.080;11.960;2023-02-07T05:22:12;17.13;;;13.23;;
23362;SDS011;11853;48.080;11.960;2023-02-07T05:24:38;16.13;;;12.07;;
23362;SDS011;11853;48.080;11.960;2023-02-07T05:27:04;14.93;;;11.68;;
23362;SDS011;11853;48.080;11.960;2023-02-07T05:29:30;18.60;;;12.57;;
23362;SDS011;11853;48.080;11.960;2023-02-07T05:31:55;15.93;;;13.20;;
23362;SDS011;11853;48.080;11.960;2023-02-07T05:34:39;15.27;;;12.27;;
23362;SDS011;11853;48.080;11.960;2023-02-07T05:37:05;16.63;;;13.02;;
23362;SDS011;11853;48.080;11.960;2023-02-07T05:39:30;16.58;;;11.93;;
23362;SDS011;11853;48.080;11.960;2023-02-07T05:41:59;17.83;;;12.65;;
23362;SDS011;11853;48.080;11.960;2023-02-07T05:44:24;16.23;;;12.50;;
23362;SDS011;11853;48.080;11.960;2023-02-07T05:46:50;14.82;;;11.60;;
23362;SDS011;11853;48.080;11.960;2023-02-07T05:49:16;14.20;;;12.63;;
23362;SDS011;11853;48.080;11.960;2023-02-07T05:51:41;16.38;;;11.73;;
23362;SDS011;11853;48.080;11.960;2023-02-07T05:54:08;14.88;;;12.45;;
23362;SDS011;11853;48.080;11.960;2023-02-07T05:56:34;15.85;;;11.95;;
23362;SDS011;11853;48.080;11.960;2023-02-07T05:58:59;16.30;;;11.98;;
23362;SDS011;11853;48.080;11.960;2023-02-07T06:01:25;17.90;;;12.63;;
23362;SDS011;11853;48.080;11.960;2023-02-07T06:03:50;16.42;;;12.70;;
23362;SDS011;11853;48.080;11.960;2023-02-07T06:06:16;14.55;;;11.65;;
23362;SDS011;11853;48.080;11.960;2023-02-07T06:08:41;14.93;;;12.05;;
23362;SDS011;11853;48.080;11.960;2023-02-07T06:11:07;16.02;;;13.07;;
23362;SDS011;11853;48.080;11.960;2023-02-07T06:13:33;16.23;;;13.52;;
23362;SDS011;11853;48.080;11.960;2023-02-07T06:15:59;21.38;;;15.10;;
23362;SDS011;11853;48.080;11.960;2023-02-07T06:18:25;21.02;;;15.50;;
23362;SDS011;11853;48.080;11.960;2023-02-07T06:20:50;18.13;;;13.88;;
23362;SDS011;11853;48.080;11.960;2023-02-07T06:23:16;17.83;;;13.00;;
23362;SDS011;11853;48.080;11.960;2023-02-07T06:25:42;17.60;;;13.88;;
23362;SDS011;11853;48.080;11.960;2023-02-07T06:28:08;16.75;;;13.10;;
23362;SDS011;11853;48.080;11.960;2023-02-07T06:30:34;18.05;;;12.93;;
23362;SDS011;11853;48.080;11.960;2023-02-07T06:32:59;17.38;;;12.82;;
23362;SDS011;11853;48.080;11.960;2023-02-07T06:35:25;16.08;;;12.60;;
23362;SDS011;11853;48.080;11.960;2023-02-07T06:37:51;14.80;;;12.05;;
23362;SDS011;11853;48.080;11.960;2023-02-07T06:40:16;17.13;;;12.70;;
23362;SDS011;11853;48.080;11.960;2023-02-07T06:42:43;18.55;;;13.82;;
23362;SDS011;11853;48.080;11.960;2023-02-07T06:45:09;16.77;;;13.82;;
23362;SDS011;11853;48.080;11.960;2023-02-07T06:47:34;17.23;;;13.48;;
23362;SDS011;11853;48.080;11.960;2023-02-07T06:50:02;16.98;;;13.77;;
23362;SDS011;11853;48.080;11.960;2023-02-07T06:52:28;18.35;;;13.25;;
23362;SDS011;11853;48.080;11.960;2023-02-07T06:54:54;17.75;;;13.32;;
23362;SDS011;11853;48.080;11.960;2023-02-07T06:57:20;17.77;;;13.75;;
23362;SDS011;11853;48.080;11.960;2023-02-07T06:59:45;22.08;;;15.13;;
23362;SDS011;11853;48.080;11.960;2023-02-07T07:02:11;19.58;;;14.02;;
23362;SDS011;11853;48.080;11.960;2023-02-07T07:04:37;18.88;;;15.07;;
23362;SDS011;11853;48.080;11.960;2023-02-07T07:07:03;18.27;;;13.38;;
23362;SDS011;11853;48.080;11.960;2023-02-07T07:09:28;16.90;;;12.95;;
23362;SDS011;11853;48.080;11.960;2023-02-07T07:11:54;18.20;;;12.90;;
23362;SDS011;11853;48.080;11.960;2023-02-07T07:14:20;20.73;;;13.35;;
23362;SDS011;11853;48.080;11.960;2023-02-07T07:16:45;19.70;;;13.45;;
23362;SDS011;11853;48.080;11.960;2023-02-07T07:19:11;17.98;;;13.05;;
23362;SDS011;11853;48.080;11.960;2023-02-07T07:21:39;19.05;;;11.52;;
23362;SDS011;11853;48.080;11.960;2023-02-07T07:24:05;16.70;;;13.13;;
23362;SDS011;11853;48.080;11.960;2023-02-07T07:26:31;17.92;;;12.65;;
23362;SDS011;11853;48.080;11.960;2023-02-07T07:28:58;20.20;;;11.82;;
23362;SDS011;11853;48.080;11.960;2023-02-07T07:31:25;12.82;;;11.10;;
23362;SDS011;11853;48.080;11.960;2023-02-07T07:33:53;14.93;;;12.05;;
23362;SDS011;11853;48.080;11.960;2023-02-07T07:36:19;18.52;;;11.68;;
23362;SDS011;11853;48.080;11.960;2023-02-07T07:38:44;15.98;;;12.38;;
23362;SDS011;11853;48.080;11.960;2023-02-07T07:41:11;17.48;;;11.82;;
23362;SDS011;11853;48.080;11.960;2023-02-07T07:43:37;15.13;;;12.60;;
23362;SDS011;11853;48.080;11.960;2023-02-07T07:46:02;14.90;;;11.68;;
23362;SDS011;11853;48.080;11.960;2023-02-07T07:48:28;16.95;;;12.88;;
23362;SDS011;11853;48.080;11.960;2023-02-07T07:50:54;16.48;;;11.98;;
23362;SDS011;11853;48.080;11.960;2023-02-07T07:53:21;14.20;;;10.85;;
23362;SDS011;11853;48.080;11.960;2023-02-07T07:55:48;16.05;;;12.07;;
23362;SDS011;11853;48.080;11.960;2023-02-07T07:58:16;16.52;;;12.45;;
23362;SDS011;11853;48.080;11.960;2023-02-07T08:00:42;17.83;;;12.60;;
23362;SDS011;11853;48.080;11.960;2023-02-07T08:03:08;15.95;;;12.45;;
23362;SDS011;11853;48.080;11.960;2023-02-07T08:05:35;16.17;;;12.32;;
23362;SDS011;11853;48.080;11.960;2023-02-07T08:08:00;15.25;;;12.57;;
23362;SDS011;11853;48.080;11.960;2023-02-07T08:10:26;14.02;;;11.60;;
23362;SDS011;11853;48.080;11.960;2023-02-07T08:12:52;16.17;;;11.60;;
23362;SDS011;11853;48.080;11.960;2023-02-07T08:15:17;15.57;;;11.95;;
23362;SDS011;11853;48.080;11.960;2023-02-07T08:17:43;16.17;;;11.82;;
23362;SDS011;11853;48.080;11.960;2023-02-07T08:20:09;16.52;;;11.85;;
23362;SDS011;11853;48.080;11.960;2023-02-07T08:22:36;13.65;;;11.68;;
23362;SDS011;11853;48.080;11.960;2023-02-07T08:25:02;14.95;;;11.52;;
23362;SDS011;11853;48.080;11.960;2023-02-07T08:27:28;14.75;;;11.52;;
23362;SDS011;11853;48.080;11.960;2023-02-07T08:29:54;14.02;;;11.70;;
23362;SDS011;11853;48.080;11.960;2023-02-07T08:32:20;15.63;;;11.80;;
23362;SDS011;11853;48.080;11.960;2023-02-07T08:34:45;16.50;;;11.40;;
23362;SDS011;11853;48.080;11.960;2023-02-07T08:37:11;15.27;;;11.90;;
23362;SDS011;11853;48.080;11.960;2023-02-07T08:39:37;14.00;;;11.63;;
23362;SDS011;11853;48.080;11.960;2023-02-07T08:42:02;12.55;;;11.07;;
23362;SDS011;11853;48.080;11.960;2023-02-07T08:44:29;11.90;;;10.70;;
23362;SDS011;11853;48.080;11.960;2023-02-07T08:46:56;17.02;;;11.80;;
23362;SDS011;11853;48.080;11.960;2023-02-07T08:49:21;15.13;;;12.18;;
23362;SDS011;11853;48.080;11.960;2023-02-07T08:51:47;14.35;;;11.90;;
23362;SDS011;11853;48.080;11.960;2023-02-07T08:54:13;14.45;;;12.43;;
23362;SDS011;11853;48.080;11.960;2023-02-07T08:56:39;18.88;;;15.65;;
23362;SDS011;11853;48.080;11.960;2023-02-07T08:59:06;17.13;;;12.85;;
23362;SDS011;11853;48.080;11.960;2023-02-07T09:01:32;15.00;;;13.40;;
23362;SDS011;11853;48.080;11.960;2023-02-07T09:03:57;15.15;;;13.50;;
23362;SDS011;11853;48.080;11.960;2023-02-07T09:06:23;14.23;;;12.68;;
23362;SDS011;11853;48.080;11.960;2023-02-07T09:08:49;16.75;;;12.07;;
23362;SDS011;11853;48.080;11.960;2023-02-07T09:11:15;14.57;;;12.07;;
23362;SDS011;11853;48.080;11.960;2023-02-07T09:13:41;12.45;;;11.25;;
23362;SDS011;11853;48.080;11.960;2023-02-07T09:16:09;16.08;;;12.60;;
23362;SDS011;11853;48.080;11.960;2023-02-07T09:18:36;13.70;;;11.55;;
23362;SDS011;11853;48.080;11.960;2023-02-07T09:21:02;14.45;;;12.07;;
23362;SDS011;11853;48.080;11.960;2023-02-07T09:23:30;13.23;;;11.70;;
23362;SDS011;11853;48.080;11.960;2023-02-07T09:25:59;15.02;;;12.43;;
23362;SDS011;11853;48.080;11.960;2023-02-07T09:28:26;13.90;;;12.02;;
23362;SDS011;11853;48.080;11.960;2023-02-07T09:30:54;13.77;;;11.93;;
23362;SDS011;11853;48.080;11.960;2023-02-07T09:33:21;12.30;;;11.07;;
23362;SDS011;11853;48.080;11.960;2023-02-07T09:35:47;17.85;;;11.60;;
23362;SDS011;11853;48.080;11.960;2023-02-07T09:38:21;14.13;;;11.50;;
23362;SDS011;11853;48.080;11.960;2023-02-07T09:40:49;13.30;;;11.90;;
23362;SDS011;11853;48.080;11.960;2023-02-07T09:43:38;13.80;;;12.00;;
23362;SDS011;11853;48.080;11.960;2023-02-07T09:46:35;12.70;;;10.80;;
23362;SDS011;11853;48.080;11.960;2023-02-07T09:51:55;14.15;;;11.20;;
23362;SDS011;11853;48.080;11.960;2023-02-07T09:56:55;15.23;;;11.38;;
23362;SDS011;11853;48.080;11.960;2023-02-07T10:05:15;12.95;;;10.95;;
23362;SDS011;11853;48.080;11.960;2023-02-07T10:07:46;13.27;;;11.38;;
23362;SDS011;11853;48.080;11.960;2023-02-07T10:10:17;14.45;;;11.55;;
23362;SDS011;11853;48.080;11.960;2023-02-07T10:15:35;12.98;;;11.00;;
23362;SDS011;11853;48.080;11.960;2023-02-07T10:29:28;14.15;;;12.00;;
23362;SDS011;11853;48.080;11.960;2023-02-07T10:32:19;15.55;;;12.40;;
23362;SDS011;11853;48.080;11.960;2023-02-07T10:34:53;14.90;;;12.27;;
23362;SDS011;11853;48.080;11.960;2023-02-07T10:37:24;17.65;;;12.95;;
23362;SDS011;11853;48.080;11.960;2023-02-07T10:39:59;14.23;;;12.23;;
23362;SDS011;11853;48.080;11.960;2023-02-07T10:42:30;17.50;;;12.88;;
23362;SDS011;11853;48.080;11.960;2023-02-07T10:44:58;15.48;;;12.98;;
23362;SDS011;11853;48.080;11.960;2023-02-07T10:47:23;15.90;;;12.30;;
23362;SDS011;11853;48.080;11.960;2023-02-07T10:49:50;16.70;;;13.70;;
23362;SDS011;11853;48.080;11.960;2023-02-07T10:54:56;13.77;;;12.10;;
23362;SDS011;11853;48.080;11.960;2023-02-07T10:59:58;16.10;;;12.73;;
23362;SDS011;11853;48.080;11.960;2023-02-07T11:04:54;16.92;;;12.65;;
23362;SDS011;11853;48.080;11.960;2023-02-07T11:07:21;15.38;;;11.95;;
23362;SDS011;11853;48.080;11.960;2023-02-07T11:09:47;15.48;;;11.20;;
23362;SDS011;11853;48.080;11.960;2023-02-07T11:12:20;12.77;;;10.98;;
23362;SDS011;11853;48.080;11.960;2023-02-07T11:15:00;14.05;;;11.00;;
23362;SDS011;11853;48.080;11.960;2023-02-07T11:17:45;15.68;;;12.73;;
23362;SDS011;11853;48.080;11.960;2023-02-07T11:20:35;14.65;;;11.15;;
23362;SDS011;11853;48.080;11.960;2023-02-07T11:23:02;13.93;;;11.43;;
23362;SDS011;11853;48.080;11.960;2023-02-07T11:25:34;14.23;;;11.35;;
23362;SDS011;11853;48.080;11.960;2023-02-07T11:28:04;13.48;;;11.07;;
23362;SDS011;11853;48.080;11.960;2023-02-07T11:30:32;13.48;;;10.45;;
23362;SDS011;11853;48.080;11.960;2023-02-07T11:33:02;14.80;;;11.05;;
23362;SDS011;11853;48.080;11.960;2023-02-07T11:35:33;15.30;;;11.40;;
23362;SDS011;11853;48.080;11.960;2023-02-07T11:38:04;13.05;;;11.35;;
23362;SDS011;11853;48.080;11.960;2023-02-07T11:40:42;12.57;;;11.18;;
23362;SDS011;11853;48.080;11.960;2023-02-07T11:43:12;16.23;;;10.52;;
23362;SDS011;11853;48.080;11.960;2023-02-07T11:45:42;14.20;;;11.32;;
23362;SDS011;11853;48.080;11.960;2023-02-07T11:51:01;12.13;;;10.65;;
23362;SDS011;11853;48.080;11.960;2023-02-07T11:53:38;13.85;;;10.93;;
23362;SDS011;11853;48.080;11.960;2023-02-07T11:56:23;11.95;;;10.15;;
23362;SDS011;11853;48.080;11.960;2023-02-07T11:59:06;12.27;;;10.20;;
23362;SDS011;11853;48.080;11.960;2023-02-07T12:01:41;13.60;;;10.35;;
23362;SDS011;11853;48.080;11.960;2023-02-07T12:04:16;12.10;;;10.30;;
23362;SDS011;11853;48.080;11.960;2023-02-07T12:07:05;10.35;;;9.25;;
23362;SDS011;11853;48.080;11.960;2023-02-07T12:09:58;11.65;;;9.90;;
23362;SDS011;11853;48.080;11.960;2023-02-07T12:12:41;12.50;;;9.88;;
23362;SDS011;11853;48.080;11.960;2023-02-07T12:17:43;13.38;;;10.13;;
23362;SDS011;11853;48.080;11.960;2023-02-07T12:20:26;11.45;;;9.57;;
23362;SDS011;11853;48.080;11.960;2023-02-07T12:25:50;11.93;;;9.48;;
23362;SDS011;11853;48.080;11.960;2023-02-07T12:30:57;10.45;;;8.57;;
23362;SDS011;11853;48.080;11.960;2023-02-07T12:33:41;11.02;;;8.70;;
23362;SDS011;11853;48.080;11.960;2023-02-07T12:39:06;9.27;;;7.32;;
23362;SDS011;11853;48.080;11.960;2023-02-07T12:41:42;11.35;;;8.45;;
23362;SDS011;11853;48.080;11.960;2023-02-07T12:44:29;10.55;;;8.60;;
23362;SDS011;11853;48.080;11.960;2023-02-07T13:03:22;10.15;;;8.48;;
23362;SDS011;11853;48.080;11.960;2023-02-07T13:11:23;12.70;;;9.73;;
23362;SDS011;11853;48.080;11.960;2023-02-07T13:21:50;15.10;;;10.32;;
23362;SDS011;11853;48.080;11.960;2023-02-07T13:24:18;13.35;;;10.20;;
23362;SDS011;11853;48.080;11.960;2023-02-07T13:26:50;13.20;;;10.65;;
23362;SDS011;11853;48.080;11.960;2023-02-07T13:29:19;11.18;;;9.65;;
23362;SDS011;11853;48.080;11.960;2023-02-07T13:31:52;12.18;;;9.55;;
23362;SDS011;11853;48.080;11.960;2023-02-07T13:34:41;13.68;;;10.23;;
23362;SDS011;11853;48.080;11.960;2023-02-07T13:37:14;12.23;;;9.93;;
23362;SDS011;11853;48.080;11.960;2023-02-07T13:42:34;15.07;;;10.77;;
23362;SDS011;11853;48.080;11.960;2023-02-07T13:45:14;13.93;;;10.63;;
23362;SDS011;11853;48.080;11.960;2023-02-07T13:56:36;14.52;;;10.73;;
23362;SDS011;11853;48.080;11.960;2023-02-07T13:59:36;13.30;;;10.55;;
23362;SDS011;11853;48.080;11.960;2023-02-07T14:02:05;12.52;;;10.57;;
23362;SDS011;11853;48.080;11.960;2023-02-07T14:07:13;15.10;;;10.80;;
23362;SDS011;11853;48.080;11.960;2023-02-07T14:09:53;15.57;;;10.95;;
23362;SDS011;11853;48.080;11.960;2023-02-07T14:12:25;14.90;;;11.13;;
23362;SDS011;11853;48.080;11.960;2023-02-07T14:18:08;13.95;;;10.63;;
23362;SDS011;11853;48.080;11.960;2023-02-07T14:34:19;16.45;;;11.27;;
23362;SDS011;11853;48.080;11.960;2023-02-07T14:36:46;17.27;;;11.80;;
23362;SDS011;11853;48.080;11.960;2023-02-07T14:41:45;16.10;;;12.00;;
23362;SDS011;11853;48.080;11.960;2023-02-07T14:46:59;14.75;;;11.35;;
23362;SDS011;11853;48.080;11.960;2023-02-07T14:49:43;16.80;;;12.18;;
23362;SDS011;11853;48.080;11.960;2023-02-07T14:52:14;16.35;;;11.73;;
23362;SDS011;11853;48.080;11.960;2023-02-07T14:54:52;15.15;;;11.05;;
23362;SDS011;11853;48.080;11.960;2023-02-07T15:02:44;14.93;;;11.43;;
23362;SDS011;11853;48.080;11.960;2023-02-07T15:05:37;13.32;;;10.02;;
23362;SDS011;11853;48.080;11.960;2023-02-07T15:08:20;14.15;;;10.10;;
23362;SDS011;11853;48.080;11.960;2023-02-07T15:10:52;13.65;;;10.88;;
23362;SDS011;11853;48.080;11.960;2023-02-07T15:13:26;13.23;;;10.27;;
23362;SDS011;11853;48.080;11.960;2023-02-07T15:18:27;24.47;;;16.20;;
23362;SDS011;11853;48.080;11.960;2023-02-07T15:20:57;19.42;;;13.82;;
23362;SDS011;11853;48.080;11.960;2023-02-07T15:23:25;18.17;;;13.27;;
23362;SDS011;11853;48.080;11.960;2023-02-07T15:25:52;13.70;;;9.30;;
23362;SDS011;11853;48.080;11.960;2023-02-07T15:28:23;12.25;;;9.60;;
23362;SDS011;11853;48.080;11.960;2023-02-07T15:33:49;14.18;;;10.18;;
23362;SDS011;11853;48.080;11.960;2023-02-07T15:36:38;13.02;;;10.25;;
23362;SDS011;11853;48.080;11.960;2023-02-07T15:39:11;15.25;;;11.80;;
23362;SDS011;11853;48.080;11.960;2023-02-07T15:41:38;17.75;;;14.05;;
23362;SDS011;11853;48.080;11.960;2023-02-07T15:44:17;20.50;;;13.80;;
23362;SDS011;11853;48.080;11.960;2023-02-07T15:46:46;21.45;;;14.65;;
23362;SDS011;11853;48.080;11.960;2023-02-07T15:49:27;16.73;;;11.55;;
23362;SDS011;11853;48.080;11.960;2023-02-07T15:51:53;14.25;;;10.82;;
23362;SDS011;11853;48.080;11.960;2023-02-07T15:54:24;13.57;;;10.87;;
23362;SDS011;11853;48.080;11.960;2023-02-07T15:56:52;13.05;;;9.93;;
23362;SDS011;11853;48.080;11.960;2023-02-07T15:59:23;13.73;;;10.70;;
23362;SDS011;11853;48.080;11.960;2023-02-07T16:01:52;12.98;;;10.00;;
23362;SDS011;11853;48.080;11.960;2023-02-07T16:04:22;15.95;;;10.20;;
23362;SDS011;11853;48.080;11.960;2023-02-07T16:06:53;13.10;;;9.52;;
23362;SDS011;11853;48.080;11.960;2023-02-07T16:15:24;14.18;;;10.13;;
23362;SDS011;11853;48.080;11.960;2023-02-07T16:17:56;15.35;;;10.73;;
23362;SDS011;11853;48.080;11.960;2023-02-07T16:20:22;15.98;;;11.38;;
23362;SDS011;11853;48.080;11.960;2023-02-07T16:22:50;16.00;;;11.35;;
23362;SDS011;11853;48.080;11.960;2023-02-07T16:25:20;15.95;;;11.40;;
23362;SDS011;11853;48.080;11.960;2023-02-07T16:27:50;15.73;;;10.80;;
23362;SDS011;11853;48.080;11.960;2023-02-07T16:30:21;14.43;;;10.90;;
23362;SDS011;11853;48.080;11.960;2023-02-07T16:32:49;13.60;;;10.68;;
23362;SDS011;11853;48.080;11.960;2023-02-07T16:37:43;15.13;;;11.57;;
23362;SDS011;11853;48.080;11.960;2023-02-07T16:40:10;15.55;;;10.45;;
23362;SDS011;11853;48.080;11.960;2023-02-07T16:42:37;18.73;;;12.70;;
23362;SDS011;11853;48.080;11.960;2023-02-07T16:45:03;17.88;;;11.52;;
23362;SDS011;11853;48.080;11.960;2023-02-07T16:47:29;16.75;;;11.77;;
23362;SDS011;11853;48.080;11.960;2023-02-07T16:49:55;21.58;;;14.23;;
23362;SDS011;11853;48.080;11.960;2023-02-07T16:52:22;21.77;;;14.10;;
23362;SDS011;11853;48.080;11.960;2023-02-07T16:54:48;18.55;;;13.77;;
23362;SDS011;11853;48.080;11.960;2023-02-07T16:57:14;20.48;;;14.35;;
23362;SDS011;11853;48.080;11.960;2023-02-07T16:59:40;17.40;;;13.93;;
23362;SDS011;11853;48.080;11.960;2023-02-07T17:02:13;19.33;;;14.02;;
23362;SDS011;11853;48.080;11.960;2023-02-07T17:04:40;20.90;;;14.88;;
23362;SDS011;11853;48.080;11.960;2023-02-07T17:07:08;14.45;;;11.75;;
23362;SDS011;11853;48.080;11.960;2023-02-07T17:09:35;16.90;;;11.65;;